Main page


Airports :

Newquay Cornwall, England

Cornwall Airport Newquay

latitude: 50-26N, longitude: 005-00W, elevation: 119 m

Current weather observation

The report was made 20 minutes ago, at 17:20 UTC
Wind 11 kt from the North
Temperature 6°C
Humidity 65%
Pressure 1033 hPa
Visibility 10 km or more
Few clouds at a height of 2800 ft

METAR: EGHQ 201720Z 36011KT 9999 FEW028 06/00 Q1033 R12/9194//

Time: 17:40 (17:40 UTC)


The report was made 41 minutes ago, at 16:59 UTC
Forecast valid from 20 at 18 UTC to 20 at 22 UTC
Wind 12 kt from the North
Visibility 10 km or more
Few clouds at a height of 1200 ft
Scattered clouds at a height of 3000 ft

TAF: EGHQ 201659Z 2018/2022 01012KT 9999 FEW012 SCT030

Weather observations and forecasts of more than 4000 airports (METAR and TAF reports).

The available stations are represented by yellow and red dots on the map.

Hover mouse over dot to see the name of the station.

Then click to see weather observations and forecasts.

To change the map : click on the green buttons with a black cross to zoom in, on the green button with a dash to zoom out, or on the green arrows for adjacent maps.